Time;durP1;ratioP1;P1;durP2;ratioP2;P2;SDS_P1;SDS_P2;PMS_P1;PMS_P2;Temp;Humidity;BMP_temperature;BMP_pressure;BME280_temperature;BME280_humidity;BME280_pressure;Samples;Min_cycle;Max_cycle;Signal;HPM_P1;HPM_P2
2024/01/07 00:02:20;;;;;;;0.20;0.20;;;;;;;5.11;62.16;101942.94;5084501;28;20032;-78
2024/01/07 00:04:46;;;;;;;1.60;1.50;;;;;;;5.13;62.20;101935.97;5087056;28;20028;-80
2024/01/07 00:07:12;;;;;;;0.20;0.20;;;;;;;5.15;62.22;101940.41;5088608;28;20044;-78
2024/01/07 00:09:38;;;;;;;0.20;0.20;;;;;;;5.13;62.07;101936.84;5081252;28;20726;-79
2024/01/07 00:12:05;;;;;;;0.35;0.35;;;;;;;5.05;61.82;101937.56;5079859;28;20502;-79
2024/01/07 00:14:31;;;;;;;0.20;0.20;;;;;;;5.05;62.11;101948.06;5082085;28;20033;-81
2024/01/07 00:16:57;;;;;;;0.10;0.10;;;;;;;5.08;61.93;101949.00;5086110;28;20056;-81
2024/01/07 00:19:23;;;;;;;0.70;0.70;;;;;;;5.10;62.11;101955.19;5082997;28;20031;-80
2024/01/07 00:21:50;;;;;;;0.40;0.40;;;;;;;5.08;61.88;101954.28;5086641;28;20028;-83
2024/01/07 00:24:16;;;;;;;0.20;0.20;;;;;;;5.10;61.77;101955.19;5082975;28;20048;-82
2024/01/07 00:26:42;;;;;;;0.20;0.20;;;;;;;5.07;61.90;101960.41;5085910;28;20080;-80
2024/01/07 00:29:08;;;;;;;0.20;0.20;;;;;;;5.06;62.05;101960.34;5090936;28;20036;-81
2024/01/07 00:31:34;;;;;;;0.20;0.20;;;;;;;5.08;61.77;101958.66;5090062;28;20033;-81
2024/01/07 00:34:01;;;;;;;0.20;0.20;;;;;;;5.05;62.11;101958.56;5090582;28;20020;-81
2024/01/07 00:36:27;;;;;;;0.20;0.20;;;;;;;5.04;61.95;101968.19;5093067;28;20039;-80
2024/01/07 00:38:53;;;;;;;0.30;0.30;;;;;;;4.97;62.36;101971.56;5089548;28;20032;-79
2024/01/07 00:41:19;;;;;;;0.20;0.20;;;;;;;5.07;62.45;101968.28;5092346;28;20020;-80
2024/01/07 00:43:45;;;;;;;0.20;0.20;;;;;;;5.05;62.26;101967.34;5089412;28;20498;-82
2024/01/07 00:46:11;;;;;;;1.08;0.52;;;;;;;5.08;62.16;101971.78;5088029;28;20079;-81
2024/01/07 00:48:38;;;;;;;0.30;0.30;;;;;;;5.08;62.13;101975.28;5085841;28;20062;-82
2024/01/07 00:51:04;;;;;;;0.25;0.25;;;;;;;5.01;62.25;101968.16;5088608;28;20032;-84
2024/01/07 00:53:30;;;;;;;0.20;0.20;;;;;;;5.03;62.17;101971.69;5084955;28;20155;-81
2024/01/07 00:55:57;;;;;;;1.85;1.10;;;;;;;5.05;62.27;101969.97;5092243;28;20029;-82
2024/01/07 00:58:23;;;;;;;0.10;0.10;;;;;;;5.02;62.25;101972.53;5091068;28;20057;-82
2024/01/07 01:00:49;;;;;;;0.20;0.20;;;;;;;5.02;62.29;101976.06;5085027;28;20036;-81
2024/01/07 01:03:15;;;;;;;0.20;0.20;;;;;;;5.04;62.38;101978.72;5085507;28;20028;-80
2024/01/07 01:05:42;;;;;;;0.20;0.20;;;;;;;5.04;62.44;101973.47;5084943;28;20088;-79
2024/01/07 01:08:08;;;;;;;0.20;0.20;;;;;;;5.02;62.16;101977.78;5089536;28;20043;-79
2024/01/07 01:10:34;;;;;;;0.10;0.10;;;;;;;5.02;62.33;101980.41;5092411;28;20028;-79
2024/01/07 01:13:00;;;;;;;0.10;0.10;;;;;;;4.97;62.28;101979.44;5098346;28;20051;-79
2024/01/07 01:15:26;;;;;;;0.20;0.20;;;;;;;4.98;62.34;101984.72;5093871;28;20032;-77
2024/01/07 01:17:53;;;;;;;0.20;0.20;;;;;;;4.96;62.13;101985.53;5092761;28;20044;-81
2024/01/07 01:20:19;;;;;;;0.20;0.20;;;;;;;4.98;62.44;101995.22;5091529;28;20028;-80
2024/01/07 01:22:45;;;;;;;0.20;0.20;;;;;;;4.93;62.30;101996.84;5098151;28;20706;-79
2024/01/07 01:25:11;;;;;;;0.57;0.57;;;;;;;4.92;62.24;101991.56;5099233;28;20028;-80
2024/01/07 01:27:38;;;;;;;0.57;0.57;;;;;;;4.91;62.19;101998.59;5095168;28;20503;-80
2024/01/07 01:30:04;;;;;;;0.20;0.20;;;;;;;4.89;62.47;102000.28;5096902;28;20382;-78
2024/01/07 01:32:31;;;;;;;0.40;0.40;;;;;;;4.86;62.21;102005.47;5091775;28;20119;-79
2024/01/07 01:34:57;;;;;;;0.52;0.52;;;;;;;4.88;62.55;101998.50;5095853;28;20028;-79
2024/01/07 01:37:23;;;;;;;0.20;0.20;;;;;;;4.91;63.06;101998.59;5091087;28;20039;-80
2024/01/07 01:39:49;;;;;;;0.30;0.30;;;;;;;4.91;63.17;102006.47;5098220;28;20059;-80
2024/01/07 01:42:15;;;;;;;0.68;0.68;;;;;;;4.85;62.95;102004.56;5093121;28;20095;-79
2024/01/07 01:44:42;;;;;;;1.48;1.38;;;;;;;4.89;63.23;102007.28;5095051;28;20032;-80
2024/01/07 01:47:10;;;;;;;0.20;0.20;;;;;;;4.85;63.05;102015.06;5095924;28;20081;-80
2024/01/07 01:49:37;;;;;;;0.20;0.20;;;;;;;4.83;63.04;102019.41;5091566;28;20020;-79
2024/01/07 01:52:05;;;;;;;0.20;0.20;;;;;;;4.86;63.10;102013.34;5092985;28;20032;-81
2024/01/07 01:54:31;;;;;;;0.30;0.30;;;;;;;4.90;63.07;102014.28;5090671;28;20122;-78
2024/01/07 01:56:58;;;;;;;0.20;0.20;;;;;;;4.89;63.07;102015.16;5092764;28;20028;-80
2024/01/07 01:59:26;;;;;;;0.20;0.20;;;;;;;4.90;62.97;102027.41;5093849;28;20487;-78
2024/01/07 02:01:52;;;;;;;0.20;0.20;;;;;;;4.88;62.83;102022.13;5092159;28;20047;-79
2024/01/07 02:04:19;;;;;;;0.20;0.20;;;;;;;4.80;63.12;102029.84;5089905;28;20056;-79
2024/01/07 02:06:46;;;;;;;0.22;0.22;;;;;;;4.84;63.02;102031.69;5092433;28;20052;-78
2024/01/07 02:09:12;;;;;;;0.20;0.20;;;;;;;4.84;62.87;102038.69;5096630;28;20024;-78
2024/01/07 02:11:38;;;;;;;0.20;0.20;;;;;;;4.78;62.82;102036.78;5092118;28;20021;-79
2024/01/07 02:14:05;;;;;;;0.40;0.40;;;;;;;4.83;63.33;102042.16;5095218;28;20039;-78
2024/01/07 02:16:31;;;;;;;0.20;0.20;;;;;;;4.80;63.15;102037.72;5093122;28;20055;-80
2024/01/07 02:18:57;;;;;;;0.20;0.20;;;;;;;4.80;63.14;102037.72;5096362;28;20038;-80
2024/01/07 02:21:24;;;;;;;1.65;1.55;;;;;;;4.76;63.33;102048.13;5097438;28;20042;-79
2024/01/07 02:23:50;;;;;;;0.30;0.30;;;;;;;4.80;62.88;102045.59;5096715;28;20033;-80
2024/01/07 02:26:16;;;;;;;0.20;0.20;;;;;;;4.79;63.26;102050.81;5096570;28;20050;-80
2024/01/07 02:28:42;;;;;;;0.20;0.20;;;;;;;4.84;63.09;102052.69;5095875;28;20024;-80
2024/01/07 02:31:08;;;;;;;0.20;0.20;;;;;;;4.79;62.87;102054.31;5094184;28;20024;-79
2024/01/07 02:33:35;;;;;;;0.20;0.20;;;;;;;4.82;63.20;102064.00;5090665;28;20036;-79
2024/01/07 02:36:01;;;;;;;0.20;0.20;;;;;;;4.85;63.23;102057.09;5095408;28;20036;-80
2024/01/07 02:38:27;;;;;;;0.20;0.20;;;;;;;4.85;63.12;102054.47;5092872;28;20055;-80
2024/01/07 02:40:53;;;;;;;0.30;0.30;;;;;;;4.78;63.52;102059.56;5092472;28;20070;-80
2024/01/07 02:43:19;;;;;;;0.30;0.30;;;;;;;4.78;63.18;102060.41;5090734;28;20054;-81
2024/01/07 02:45:45;;;;;;;0.20;0.20;;;;;;;4.80;63.26;102069.22;5087827;28;20085;-80
2024/01/07 02:48:12;;;;;;;0.20;0.20;;;;;;;4.74;63.13;102069.09;5084531;28;20036;-77
2024/01/07 02:50:38;;;;;;;0.35;0.35;;;;;;;4.75;62.93;102076.13;5089074;28;20063;-80
2024/01/07 02:53:04;;;;;;;0.60;0.60;;;;;;;4.76;63.10;102077.91;5083514;28;20035;-78
2024/01/07 02:55:30;;;;;;;0.28;0.28;;;;;;;4.67;63.64;102077.66;5080956;28;20028;-78
2024/01/07 02:57:57;;;;;;;0.43;0.43;;;;;;;4.75;63.83;102070.88;5088936;28;20386;-79
2024/01/07 03:00:23;;;;;;;0.55;0.55;;;;;;;4.68;63.20;102071.56;5088024;28;20070;-79
2024/01/07 03:02:49;;;;;;;0.68;0.68;;;;;;;4.68;63.22;102079.44;5085532;28;20036;-79
2024/01/07 03:05:15;;;;;;;0.30;0.30;;;;;;;4.64;63.16;102083.72;5083693;28;20107;-78
2024/01/07 03:07:41;;;;;;;0.10;0.10;;;;;;;4.66;63.50;102076.78;5085668;28;20052;-79
2024/01/07 03:10:08;;;;;;;0.20;0.20;;;;;;;4.61;63.32;102077.50;5086299;28;20024;-79
2024/01/07 03:12:34;;;;;;;0.15;0.15;;;;;;;4.69;63.19;102075.97;5085026;28;20514;-77
2024/01/07 03:15:00;;;;;;;0.20;0.20;;;;;;;4.58;64.03;102073.06;5093179;28;20046;-78
2024/01/07 03:17:27;;;;;;;0.30;0.30;;;;;;;4.61;63.52;102077.50;5088509;28;20028;-79
2024/01/07 03:19:53;;;;;;;1.38;1.27;;;;;;;4.63;63.67;102092.44;5093236;28;20515;-78
2024/01/07 03:22:19;;;;;;;0.15;0.15;;;;;;;4.65;63.62;102089.88;5089762;28;21078;-77
2024/01/07 03:24:45;;;;;;;0.40;0.40;;;;;;;4.64;63.57;102093.34;5092123;28;20036;-78
2024/01/07 03:27:11;;;;;;;0.40;0.40;;;;;;;4.59;63.78;102097.59;5087752;28;20051;-79
2024/01/07 03:29:39;;;;;;;0.40;0.40;;;;;;;4.61;63.63;102098.50;5083522;28;20041;-78
2024/01/07 03:32:06;;;;;;;0.20;0.20;;;;;;;4.61;63.98;102098.50;5088443;28;20058;-78
2024/01/07 03:34:32;;;;;;;0.30;0.30;;;;;;;4.61;63.89;102098.50;5090284;28;20036;-78
2024/01/07 03:36:58;;;;;;;0.40;0.40;;;;;;;4.51;64.24;102106.16;5091235;28;20095;-78
2024/01/07 03:39:24;;;;;;;0.20;0.20;;;;;;;4.59;63.93;102102.84;5088349;28;20025;-79
2024/01/07 03:41:55;;;;;;;0.20;0.20;;;;;;;4.61;64.18;102103.75;5091844;28;20040;-78
2024/01/07 03:44:22;;;;;;;0.20;0.20;;;;;;;4.50;64.38;102107.00;5087271;28;20020;-79
2024/01/07 03:46:48;;;;;;;1.52;1.50;;;;;;;4.58;63.96;102103.69;5091953;28;20079;-78
2024/01/07 03:49:15;;;;;;;0.93;0.93;;;;;;;4.60;64.04;102122.97;5091058;28;20032;-78
2024/01/07 03:51:41;;;;;;;0.55;0.55;;;;;;;4.56;64.63;102121.13;5089232;28;20130;-80
2024/01/07 03:54:07;;;;;;;0.25;0.25;;;;;;;4.57;64.75;102129.03;5090706;28;20028;-79
2024/01/07 03:56:33;;;;;;;0.43;0.43;;;;;;;4.60;64.73;102129.13;5085532;28;20123;-77
2024/01/07 03:58:59;;;;;;;4.95;1.85;;;;;;;4.67;64.04;102133.69;5085385;28;20039;-80
2024/01/07 04:01:26;;;;;;;0.63;0.63;;;;;;;4.67;64.25;102140.66;5082481;28;20038;-79
2024/01/07 04:03:52;;;;;;;2.45;2.28;;;;;;;4.64;64.19;102145.84;5084701;28;20032;-78
2024/01/07 04:06:18;;;;;;;0.50;0.50;;;;;;;4.61;64.48;102146.66;5083847;28;20051;-78
2024/01/07 04:08:44;;;;;;;5.25;1.67;;;;;;;4.67;64.22;102152.06;5084344;28;20039;-79
2024/01/07 04:11:10;;;;;;;0.20;0.20;;;;;;;4.65;63.95;102150.25;5081974;28;20110;-78
2024/01/07 04:13:37;;;;;;;0.20;0.20;;;;;;;4.65;64.10;102145.00;5081194;28;20052;-79
2024/01/07 04:16:03;;;;;;;0.20;0.20;;;;;;;4.73;63.95;102150.44;5085033;28;20333;-78
2024/01/07 04:18:30;;;;;;;0.20;0.20;;;;;;;4.72;63.76;102154.78;5081983;28;20082;-78
2024/01/07 04:20:56;;;;;;;0.15;0.15;;;;;;;4.67;63.59;102156.41;5079963;28;20024;-78
2024/01/07 04:23:22;;;;;;;0.30;0.30;;;;;;;4.61;63.84;102156.25;5080470;28;20028;-78
2024/01/07 04:25:48;;;;;;;0.20;0.20;;;;;;;4.59;63.66;102157.97;5081447;28;20021;-79
2024/01/07 04:28:14;;;;;;;0.20;0.20;;;;;;;4.66;63.74;102157.25;5082390;28;20033;-78
2024/01/07 04:30:40;;;;;;;0.20;0.20;;;;;;;4.65;64.12;102173.88;5082337;28;20466;-77
2024/01/07 04:33:07;;;;;;;0.93;0.93;;;;;;;4.62;63.83;102173.78;5084362;28;20390;-78
2024/01/07 04:35:34;;;;;;;0.82;0.82;;;;;;;4.64;63.74;102172.09;5081122;28;20407;-78
2024/01/07 04:38:00;;;;;;;0.60;0.60;;;;;;;4.55;63.73;102175.38;5081535;28;20027;-77
2024/01/07 04:40:26;;;;;;;0.52;0.50;;;;;;;4.58;63.83;102174.56;5084409;28;20024;-79
2024/01/07 04:42:52;;;;;;;0.70;0.70;;;;;;;4.60;63.82;102175.47;5088660;28;20028;-79
2024/01/07 04:45:18;;;;;;;0.85;0.75;;;;;;;4.58;64.08;102177.19;5084692;28;20016;-78
2024/01/07 04:47:44;;;;;;;0.15;0.15;;;;;;;4.52;64.31;102175.28;5084810;28;20540;-78
2024/01/07 04:50:11;;;;;;;0.20;0.20;;;;;;;4.60;64.37;102180.72;5085337;28;20028;-78
2024/01/07 04:52:37;;;;;;;0.20;0.20;;;;;;;4.50;64.52;102179.63;5084116;28;20044;-79
2024/01/07 04:55:04;;;;;;;0.10;0.10;;;;;;;4.47;64.29;102177.78;5081353;28;20024;-77
2024/01/07 04:57:30;;;;;;;0.43;0.43;;;;;;;4.44;64.68;102193.47;5088538;28;20101;-79
2024/01/07 04:59:56;;;;;;;0.20;0.20;;;;;;;4.44;64.60;102196.09;5087919;28;20029;-78
2024/01/07 05:02:23;;;;;;;0.32;0.32;;;;;;;4.45;64.56;102205.75;5088069;28;20024;-79
2024/01/07 05:04:49;;;;;;;0.20;0.20;;;;;;;4.45;64.72;102203.13;5088962;28;20434;-80
2024/01/07 05:07:16;;;;;;;0.20;0.20;;;;;;;4.53;64.46;102204.19;5090058;28;20024;-79
2024/01/07 05:09:42;;;;;;;0.30;0.30;;;;;;;4.48;64.59;102202.31;5087836;28;20024;-79
2024/01/07 05:12:08;;;;;;;0.20;0.20;;;;;;;4.43;64.48;102206.56;5088749;28;20032;-78
2024/01/07 05:14:34;;;;;;;0.20;0.20;;;;;;;4.46;64.70;102215.41;5088016;28;20024;-79
2024/01/07 05:17:00;;;;;;;0.30;0.30;;;;;;;4.42;64.59;102212.63;5087497;28;20070;-79
2024/01/07 05:19:26;;;;;;;0.30;0.30;;;;;;;4.41;64.69;102213.47;5088465;28;20092;-79
2024/01/07 05:21:54;;;;;;;1.50;1.40;;;;;;;4.44;64.71;102217.09;5088784;28;20025;-80
2024/01/07 05:24:20;;;;;;;0.43;0.43;;;;;;;4.39;64.38;102223.94;5089035;28;20130;-79
2024/01/07 05:26:46;;;;;;;0.40;0.40;;;;;;;4.34;64.70;102225.56;5089767;28;20032;-79
2024/01/07 05:29:12;;;;;;;0.30;0.30;;;;;;;4.34;64.50;102228.19;5084704;28;20032;-80
2024/01/07 05:31:39;;;;;;;0.20;0.20;;;;;;;4.29;64.79;102233.28;5079595;28;20032;-80
2024/01/07 05:34:06;;;;;;;0.40;0.40;;;;;;;4.26;64.99;102245.44;5084218;28;20039;-80
2024/01/07 05:36:32;;;;;;;1.17;1.17;;;;;;;4.28;65.09;102246.38;5084637;28;20035;-79
2024/01/07 05:38:58;;;;;;;0.30;0.30;;;;;;;4.23;65.27;102245.34;5086011;28;20029;-79
2024/01/07 05:41:24;;;;;;;0.20;0.20;;;;;;;4.30;65.20;102255.16;5084651;28;20433;-79
2024/01/07 05:43:51;;;;;;;0.75;0.73;;;;;;;4.37;65.31;102252.78;5085815;28;20097;-79
2024/01/07 05:46:17;;;;;;;0.30;0.30;;;;;;;4.37;64.94;102258.03;5086612;28;20115;-79
2024/01/07 05:48:46;;;;;;;0.30;0.30;;;;;;;4.37;65.09;102255.41;5085328;28;20387;-79
2024/01/07 05:51:13;;;;;;;0.20;0.20;;;;;;;4.39;64.64;102247.56;5087500;28;20047;-78
2024/01/07 05:53:40;;;;;;;0.25;0.25;;;;;;;4.39;65.09;102258.06;5087097;28;20115;-80
2024/01/07 05:56:07;;;;;;;0.50;0.50;;;;;;;4.34;64.74;102257.03;5087361;28;20510;-78
2024/01/07 05:58:33;;;;;;;0.30;0.30;;;;;;;4.40;64.66;102266.81;5084771;28;20032;-78
2024/01/07 06:01:00;;;;;;;0.20;0.20;;;;;;;4.37;64.52;102262.38;5082528;28;20033;-79
2024/01/07 06:03:26;;;;;;;0.93;0.85;;;;;;;4.38;64.52;102261.53;5085115;28;20031;-78
2024/01/07 06:05:52;;;;;;;0.68;0.68;;;;;;;4.42;64.44;102266.00;5091209;28;20022;-78
2024/01/07 06:08:18;;;;;;;0.75;0.75;;;;;;;4.35;64.72;102269.31;5089178;28;20399;-79
2024/01/07 06:10:45;;;;;;;0.25;0.25;;;;;;;4.37;63.96;102272.84;5087894;28;20029;-78
2024/01/07 06:13:11;;;;;;;0.20;0.20;;;;;;;4.34;64.35;102278.91;5091585;28;20032;-79
2024/01/07 06:15:37;;;;;;;0.85;0.85;;;;;;;4.44;64.21;102279.19;5087430;28;20028;-78
2024/01/07 06:18:03;;;;;;;0.50;0.50;;;;;;;4.42;64.29;102281.75;5089093;28;20032;-79
2024/01/07 06:20:29;;;;;;;0.20;0.20;;;;;;;4.41;64.51;102287.88;5084946;28;20499;-78
2024/01/07 06:22:56;;;;;;;0.20;0.20;;;;;;;4.39;64.31;102297.41;5089529;28;20036;-79
2024/01/07 06:25:22;;;;;;;0.20;0.20;;;;;;;4.35;64.11;102291.19;5095087;28;20038;-78
2024/01/07 06:27:49;;;;;;;0.25;0.25;;;;;;;4.38;64.26;102295.63;5096993;28;20041;-78
2024/01/07 06:30:16;;;;;;;0.20;0.20;;;;;;;4.36;64.29;102298.22;5091615;28;20035;-80
2024/01/07 06:32:43;;;;;;;0.20;0.20;;;;;;;4.45;64.22;102307.19;5085418;28;20525;-78
2024/01/07 06:35:10;;;;;;;0.50;0.50;;;;;;;4.38;64.52;102314.88;5088844;28;20103;-80
2024/01/07 06:37:36;;;;;;;0.20;0.20;;;;;;;4.47;64.43;102316.00;5088926;28;20028;-79
2024/01/07 06:40:02;;;;;;;0.20;0.20;;;;;;;4.50;64.52;102322.25;5090139;28;20036;-79
2024/01/07 06:42:29;;;;;;;0.28;0.28;;;;;;;4.50;63.91;102324.88;5096131;28;20034;-78
2024/01/07 06:44:55;;;;;;;0.65;0.65;;;;;;;4.54;64.15;102329.34;5092483;28;20051;-77
2024/01/07 06:47:21;;;;;;;0.20;0.20;;;;;;;4.52;64.35;102332.78;5095440;28;20054;-77
2024/01/07 06:49:47;;;;;;;0.28;0.28;;;;;;;4.50;64.17;102332.75;5090316;28;20032;-79
2024/01/07 06:52:13;;;;;;;0.30;0.30;;;;;;;4.52;63.83;102345.91;5089738;28;20035;-77
2024/01/07 06:54:39;;;;;;;0.20;0.20;;;;;;;4.54;64.02;102342.47;5081037;28;20032;-78
2024/01/07 06:57:06;;;;;;;0.57;0.57;;;;;;;4.48;63.80;102349.28;5088592;28;20165;-77
2024/01/07 06:59:32;;;;;;;0.20;0.20;;;;;;;4.38;64.05;102349.00;5095807;28;20040;-78
2024/01/07 07:01:58;;;;;;;0.20;0.20;;;;;;;4.40;63.85;102351.69;5089476;28;20036;-79
2024/01/07 07:04:24;;;;;;;0.40;0.40;;;;;;;4.41;63.67;102358.72;5082323;28;20028;-77
2024/01/07 07:06:51;;;;;;;0.20;0.20;;;;;;;4.41;63.65;102360.44;5084225;28;20059;-78
2024/01/07 07:09:17;;;;;;;0.20;0.20;;;;;;;4.42;63.88;102364.84;5092156;28;20024;-78
2024/01/07 07:11:43;;;;;;;0.20;0.20;;;;;;;4.42;63.69;102364.84;5087312;28;20028;-78
2024/01/07 07:14:09;;;;;;;0.25;0.25;;;;;;;4.36;63.52;102379.56;5094322;28;20036;-77
2024/01/07 07:16:35;;;;;;;0.10;0.10;;;;;;;4.41;63.58;102373.56;5087632;28;20041;-78
2024/01/07 07:19:02;;;;;;;0.57;0.57;;;;;;;4.35;63.63;102374.28;5091684;28;20399;-78
2024/01/07 07:21:28;;;;;;;0.20;0.20;;;;;;;4.39;63.79;102378.78;5093941;28;20027;-78
2024/01/07 07:23:54;;;;;;;0.77;0.77;;;;;;;4.38;63.78;102385.75;5092190;28;20193;-78
2024/01/07 07:26:20;;;;;;;0.20;0.20;;;;;;;4.41;63.36;102394.56;5092546;28;20058;-78
2024/01/07 07:28:47;;;;;;;1.38;1.00;;;;;;;4.32;63.53;102397.78;5090463;28;20042;-79
2024/01/07 07:31:13;;;;;;;0.20;0.20;;;;;;;4.34;63.67;102404.00;5087916;28;20063;-77
2024/01/07 07:33:40;;;;;;;2.08;1.65;;;;;;;4.34;63.32;102398.75;5084523;28;20062;-79
2024/01/07 07:36:07;;;;;;;0.20;0.20;;;;;;;4.32;63.50;102403.03;5092404;28;20096;-77
2024/01/07 07:38:33;;;;;;;0.60;0.60;;;;;;;4.29;63.22;102410.84;5094853;28;20040;-79
2024/01/07 07:41:00;;;;;;;0.30;0.30;;;;;;;4.31;63.50;102414.38;5097517;28;20028;-78
2024/01/07 07:43:26;;;;;;;0.20;0.20;;;;;;;4.27;63.35;102420.38;5096551;28;20020;-79
2024/01/07 07:45:53;;;;;;;0.28;0.28;;;;;;;4.28;63.16;102420.41;5090308;28;20038;-79
2024/01/07 07:48:19;;;;;;;0.20;0.20;;;;;;;4.26;63.89;102426.47;5093998;28;20053;-78
2024/01/07 07:50:46;;;;;;;0.30;0.30;;;;;;;4.33;63.48;102434.56;5091804;28;20073;-78
2024/01/07 07:53:12;;;;;;;0.40;0.40;;;;;;;4.40;63.58;102440.94;5091314;28;20036;-78
2024/01/07 07:55:38;;;;;;;0.50;0.50;;;;;;;4.32;63.85;102432.78;5087754;28;20044;-79
2024/01/07 07:58:04;;;;;;;0.20;0.20;;;;;;;4.33;63.33;102438.94;5087075;28;20033;-79
2024/01/07 08:00:31;;;;;;;0.20;0.20;;;;;;;4.31;63.80;102440.63;5086555;28;20490;-78
2024/01/07 08:02:57;;;;;;;0.30;0.30;;;;;;;4.26;63.27;102436.97;5088750;28;20028;-79
2024/01/07 08:05:23;;;;;;;0.77;0.77;;;;;;;4.18;63.41;102442.84;5095340;28;20035;-78
2024/01/07 08:07:49;;;;;;;1.00;1.00;;;;;;;4.12;63.62;102447.91;5086713;28;20033;-78
2024/01/07 08:10:15;;;;;;;0.57;0.57;;;;;;;4.05;63.97;102445.94;5083221;28;20039;-78
2024/01/07 08:12:42;;;;;;;1.25;1.20;;;;;;;4.15;63.37;102450.63;5084376;28;20063;-78
2024/01/07 08:15:08;;;;;;;0.20;0.20;;;;;;;4.16;63.44;102455.03;5093951;28;20082;-78
2024/01/07 08:17:34;;;;;;;0.20;0.20;;;;;;;4.17;63.58;102458.53;5087340;28;20067;-78
2024/01/07 08:20:01;;;;;;;0.20;0.20;;;;;;;4.18;63.76;102466.47;5084014;28;20044;-78
2024/01/07 08:22:27;;;;;;;0.20;0.20;;;;;;;4.19;63.49;102472.63;5087803;28;20036;-78
2024/01/07 08:24:54;;;;;;;0.30;0.30;;;;;;;4.18;63.51;102474.31;5087057;28;20036;-79
2024/01/07 08:27:20;;;;;;;0.77;0.77;;;;;;;4.17;63.58;102480.41;5094433;28;20031;-81
2024/01/07 08:29:47;;;;;;;0.45;0.45;;;;;;;4.18;63.87;102482.19;5096888;28;20051;-81
2024/01/07 08:32:13;;;;;;;0.30;0.30;;;;;;;4.09;63.89;102481.91;5090579;28;20020;-80
2024/01/07 08:34:39;;;;;;;0.20;0.20;;;;;;;4.14;63.51;102480.31;5095759;28;20024;-80
2024/01/07 08:37:07;;;;;;;0.10;0.10;;;;;;;4.01;63.52;102488.63;5097347;28;20040;-80
2024/01/07 08:39:33;;;;;;;0.28;0.28;;;;;;;3.99;63.24;102485.94;5094587;28;20057;-80
2024/01/07 08:41:59;;;;;;;0.20;0.20;;;;;;;4.04;63.79;102491.38;5096360;28;20051;-79
2024/01/07 08:44:25;;;;;;;0.30;0.30;;;;;;;3.98;63.70;102489.41;5096140;28;20028;-79
2024/01/07 08:46:51;;;;;;;0.20;0.20;;;;;;;4.07;63.97;102494.06;5088926;28;20032;-80
2024/01/07 08:49:17;;;;;;;0.20;0.20;;;;;;;4.05;63.74;102501.91;5087406;28;20078;-79
2024/01/07 08:51:44;;;;;;;0.35;0.35;;;;;;;4.13;63.93;102504.78;5087554;28;20040;-82
2024/01/07 08:54:10;;;;;;;0.17;0.17;;;;;;;4.17;63.71;102511.91;5094016;28;20398;-81
2024/01/07 08:56:36;;;;;;;1.63;1.60;;;;;;;4.15;63.45;102515.31;5082872;28;20040;-80
2024/01/07 08:59:04;;;;;;;0.20;0.20;;;;;;;4.26;63.40;102520.91;5092548;28;20055;-79
2024/01/07 09:01:30;;;;;;;0.20;0.20;;;;;;;4.27;63.18;102520.09;5089310;28;20399;-79
2024/01/07 09:03:56;;;;;;;0.55;0.55;;;;;;;4.28;63.03;102520.13;5089054;28;20024;-79
2024/01/07 09:06:22;;;;;;;0.20;0.20;;;;;;;4.24;62.76;102526.13;5094284;28;20027;-81
2024/01/07 09:08:48;;;;;;;0.20;0.20;;;;;;;4.28;62.92;102533.25;5093432;28;20306;-79
2024/01/07 09:11:16;;;;;;;0.20;0.20;;;;;;;4.25;63.25;102529.63;5102317;28;20613;-80
2024/01/07 09:13:42;;;;;;;1.05;1.05;;;;;;;4.29;63.18;102527.16;5099566;28;20032;-79
2024/01/07 09:16:11;;;;;;;0.20;0.20;;;;;;;4.28;63.16;102535.00;5101564;28;20031;-79
2024/01/07 09:18:37;;;;;;;3.20;1.25;;;;;;;4.32;63.01;102536.88;5101820;28;20032;-80
2024/01/07 09:21:04;;;;;;;0.95;0.95;;;;;;;4.28;62.64;102540.25;5092358;28;20032;-80
2024/01/07 09:23:30;;;;;;;0.20;0.20;;;;;;;4.31;63.01;102545.56;5090327;28;20040;-80
2024/01/07 09:25:56;;;;;;;0.20;0.20;;;;;;;4.21;62.88;102549.63;5092618;28;20013;-79
2024/01/07 09:28:22;;;;;;;0.20;0.20;;;;;;;4.21;62.84;102549.63;5085240;28;20028;-81
2024/01/07 09:30:48;;;;;;;0.20;0.20;;;;;;;4.13;62.65;102554.63;5082271;28;20029;-81
2024/01/07 09:33:15;;;;;;;0.20;0.20;;;;;;;4.15;62.32;102560.81;5091335;28;20012;-80
2024/01/07 09:35:41;;;;;;;0.20;0.20;;;;;;;4.05;62.11;102562.22;5092015;28;20106;-80
2024/01/07 09:38:07;;;;;;;0.20;0.20;;;;;;;4.13;62.02;102572.97;5083859;28;20047;-81
2024/01/07 09:40:34;;;;;;;0.20;0.20;;;;;;;4.14;62.08;102580.00;5087012;28;20032;-81
2024/01/07 09:43:00;;;;;;;0.20;0.20;;;;;;;4.15;62.52;102573.94;5081935;28;20039;-80
2024/01/07 09:45:28;;;;;;;0.50;0.50;;;;;;;4.13;62.57;102579.97;5097956;28;20024;-80
2024/01/07 09:47:55;;;;;;;0.60;0.60;;;;;;;4.13;62.36;102578.22;5099956;28;20021;-79
2024/01/07 09:50:22;;;;;;;0.25;0.25;;;;;;;4.03;61.69;102582.25;5094671;28;20043;-79
2024/01/07 09:52:52;;;;;;;0.20;0.20;;;;;;;4.04;61.97;102583.16;5095662;28;20130;-80
2024/01/07 09:55:28;;;;;;;0.20;0.20;;;;;;;4.15;62.57;102592.28;5096697;28;20020;-80
2024/01/07 09:57:54;;;;;;;0.98;0.95;;;;;;;4.15;62.41;102600.16;5093007;28;20028;-80
2024/01/07 10:00:20;;;;;;;0.63;0.63;;;;;;;4.09;62.27;102606.91;5094637;28;20028;-80
2024/01/07 10:02:47;;;;;;;0.30;0.30;;;;;;;4.16;61.72;102604.59;5094510;28;20036;-79
2024/01/07 10:05:13;;;;;;;0.40;0.40;;;;;;;4.26;62.12;102604.88;5091369;28;20036;-81
2024/01/07 10:07:39;;;;;;;1.35;1.17;;;;;;;4.31;61.63;102600.69;5093477;28;20032;-80
2024/01/07 10:10:21;;;;;;;0.20;0.20;;;;;;;4.36;61.54;102613.13;5095376;28;20117;-79
2024/01/07 10:12:47;;;;;;;0.52;0.52;;;;;;;4.29;61.71;102619.00;5090554;28;20452;-80
2024/01/07 10:15:14;;;;;;;0.20;0.20;;;;;;;4.32;61.51;102612.97;5093648;28;20043;-80
2024/01/07 10:17:42;;;;;;;0.52;0.52;;;;;;;4.42;61.73;102622.94;5098602;28;20154;-81
2024/01/07 10:20:11;;;;;;;0.20;0.20;;;;;;;4.47;61.73;102631.84;5096740;28;20028;-79
2024/01/07 10:22:38;;;;;;;0.20;0.20;;;;;;;4.47;61.33;102621.34;5088507;28;20464;-79
2024/01/07 10:25:04;;;;;;;0.85;0.85;;;;;;;4.42;61.35;102625.56;5093674;28;20058;-78
2024/01/07 10:27:35;;;;;;;0.20;0.20;;;;;;;4.31;60.32;102626.94;5091694;28;20033;-79
2024/01/07 10:30:02;;;;;;;0.20;0.20;;;;;;;4.40;60.63;102623.72;5091998;28;20029;-77
2024/01/07 10:32:29;;;;;;;0.20;0.20;;;;;;;4.39;60.49;102628.09;5092842;28;20092;-78
2024/01/07 10:35:05;;;;;;;1.75;1.40;;;;;;;4.35;60.01;102624.47;5093684;28;20051;-80
2024/01/07 10:37:33;;;;;;;0.20;0.20;;;;;;;4.36;59.91;102627.97;5088699;28;20029;-82
2024/01/07 10:40:03;;;;;;;0.20;0.20;;;;;;;4.41;60.30;102633.38;5092678;28;20095;-85
2024/01/07 10:42:32;;;;;;;0.20;0.20;;;;;;;4.34;59.84;102633.19;5087498;28;20025;-81
2024/01/07 10:44:59;;;;;;;0.15;0.15;;;;;;;4.37;59.99;102625.44;5091890;28;20016;-79
2024/01/07 10:47:29;;;;;;;0.20;0.20;;;;;;;4.44;59.61;102633.50;5086665;28;20044;-79
2024/01/07 10:49:58;;;;;;;3.83;2.83;;;;;;;4.46;59.63;102634.44;5090397;28;20024;-80
2024/01/07 10:52:27;;;;;;;0.38;0.38;;;;;;;4.58;60.23;102644.47;5087617;28;20100;-80
2024/01/07 10:55:00;;;;;;;0.20;0.20;;;;;;;4.61;59.58;102640.22;5091054;28;20025;-78
2024/01/07 10:57:48;;;;;;;0.20;0.20;;;;;;;4.75;59.25;102643.31;5088909;28;20029;-79
2024/01/07 11:00:22;;;;;;;0.17;0.17;;;;;;;4.56;58.78;102641.81;5093002;28;20028;-80
2024/01/07 11:03:04;;;;;;;0.20;0.20;;;;;;;4.73;58.98;102636.22;5091614;28;20048;-80
2024/01/07 11:05:52;;;;;;;0.20;0.20;;;;;;;4.82;58.81;102647.91;5092065;28;20047;-80
2024/01/07 11:11:03;;;;;;;0.20;0.20;;;;;;;4.80;57.96;102644.34;5100721;27;1914054;-80
2024/01/07 11:13:38;;;;;;;0.20;0.20;;;;;;;4.75;57.98;102638.06;5158206;27;20031;-78
2024/01/07 11:16:05;;;;;;;0.45;0.45;;;;;;;4.81;57.83;102643.50;5154401;27;20019;-80
2024/01/07 11:18:33;;;;;;;0.20;0.20;;;;;;;4.69;57.28;102630.84;5156940;27;20015;-79
2024/01/07 11:21:01;;;;;;;0.20;0.20;;;;;;;4.63;57.68;102637.63;5148302;27;20074;-78
2024/01/07 11:23:30;;;;;;;0.20;0.20;;;;;;;4.72;57.82;102640.56;5151771;27;20023;-79
2024/01/07 11:25:58;;;;;;;0.20;0.20;;;;;;;4.68;57.32;102649.19;5149612;27;20024;-80
2024/01/07 11:31:43;;;;;;;4.55;1.45;;;;;;;4.61;57.26;102650.72;5073960;28;20481;-79
2024/01/07 11:34:09;;;;;;;0.20;0.20;;;;;;;4.46;57.71;102632.72;5060712;28;20029;-77
2024/01/07 11:36:37;;;;;;;0.20;0.20;;;;;;;4.61;57.79;102642.84;5063879;28;20088;-79
2024/01/07 11:39:05;;;;;;;0.20;0.20;;;;;;;4.64;58.03;102628.94;5059978;28;20523;-78